Terminal Aerodrome Forecast
Issued by NWS Rapid City, SD

Home | Current Version | Previous Version | Graphics & Text | Print | Product List | Glossary On
Versions: 1 2 3 4 5 6 7 8 9 10 11 12 13 14 15 16
000
FTUS43 KUNR 151617 AAB
TAFRAP
TAF AMD
KRAP 151617Z 1516/1612 34024G34KT P6SM SKC
      TEMPO 1516/1518 3SM BLSN FEW010 BKN020
     FM160000 35006KT P6SM SKC=

USA.gov is the U.S. government's official web portal to all federal, state and local government web resources and services.